The Little Minch, United Kingdom
Current Conditions -  °F | °C
As of 5:20 PM on Monday 22 Dec 2014 (Local Time) from EGPL Reporting Station
Rain Showers Rain Showers  
Wind Chill: 35°   Ceiling: Unl
Heat Index: 45°   Visibility: 6mi
Dew Point: 37°   Wind: 26mph
Humidity: 76%   Direction: 250°WSW
Pressure: 29.53"   Gusts: NA
Location:  57.5°N, 7°W
Report Text: EGPL 221720Z 25023KT 9999 VCSH FEW012 SCT021 07/03 Q1000
Loading
Personal Weather Stations






























Interactive Weather Map New forecast layout! Learn more

10-Day Weather Forecast

Advertisements
Track Severe Weather on mobile